Aviation Digital Data Service (ADDS)

Output produced by TAFs form (1104 UTC 03 March 2015)
found at http://www.aviationweather.gov/adds/tafs/
 
KRIC 030535Z 0306/0406 04004KT P6SM BKN250 
     FM031400 13005KT P6SM BKN040 OVC090 
     FM032100 19007KT 4SM -RA BR SCT020 OVC040 
     FM040000 18008KT 4SM -RA BR SCT009 OVC020